Time;durP1;ratioP1;P1;durP2;ratioP2;P2;SDS_P1;SDS_P2;PMS_P1;PMS_P2;Temp;Humidity;BMP_temperature;BMP_pressure;BME280_temperature;BME280_humidity;BME280_pressure;Samples;Min_cycle;Max_cycle;Signal;HPM_P1;HPM_P2
2022/09/20 00:01:11;;;;;;;3.13;0.90;;;;;;;12.48;94.23;101038.03;5033695;28;20486;-66
2022/09/20 00:03:38;;;;;;;0.88;0.68;;;;;;;12.46;93.92;101045.72;5032085;28;20487;-66
2022/09/20 00:06:06;;;;;;;1.63;0.68;;;;;;;12.38;93.94;101044.00;5030527;28;20037;-66
2022/09/20 00:08:33;;;;;;;3.10;1.33;;;;;;;12.40;93.90;101053.31;5036811;28;20017;-66
2022/09/20 00:11:08;;;;;;;1.05;0.90;;;;;;;12.37;94.20;101043.22;5033289;28;20034;-66
2022/09/20 00:13:35;;;;;;;2.10;1.08;;;;;;;12.35;93.91;101048.19;5030500;28;20108;-66
2022/09/20 00:16:05;;;;;;;1.63;0.68;;;;;;;12.42;94.03;101040.25;5050177;28;20033;-66
2022/09/20 00:18:31;;;;;;;4.55;1.27;;;;;;;12.38;93.69;101047.50;5029692;28;20029;-66
2022/09/20 00:20:56;;;;;;;2.25;0.63;;;;;;;12.49;93.43;101045.78;5033744;28;20386;-66
2022/09/20 00:23:22;;;;;;;3.95;0.77;;;;;;;12.50;93.13;101055.44;5030375;28;20037;-67
2022/09/20 00:25:57;;;;;;;1.65;1.10;;;;;;;12.59;93.59;101049.81;5037874;28;20044;-66
2022/09/20 00:28:27;;;;;;;4.13;1.20;;;;;;;12.56;94.33;101059.41;5037804;28;20112;-66
2022/09/20 00:30:54;;;;;;;1.85;1.20;;;;;;;12.51;94.77;101057.00;5031777;28;20136;-66
2022/09/20 00:33:21;;;;;;;1.27;0.90;;;;;;;12.53;94.78;101059.34;5029139;28;20045;-66
2022/09/20 00:35:47;;;;;;;4.18;1.17;;;;;;;12.58;95.28;101064.47;5033423;28;20029;-66
2022/09/20 00:38:13;;;;;;;4.20;0.70;;;;;;;12.63;95.21;101061.47;5032293;28;20382;-66
2022/09/20 00:40:40;;;;;;;1.38;0.75;;;;;;;12.58;94.81;101067.19;5032288;28;20501;-66
2022/09/20 00:43:06;;;;;;;1.35;0.98;;;;;;;12.55;94.76;101065.97;5030722;28;20037;-66
2022/09/20 00:45:32;;;;;;;1.90;0.70;;;;;;;12.52;94.94;101074.00;5034014;28;20029;-66
2022/09/20 00:48:16;;;;;;;2.28;0.77;;;;;;;12.45;94.96;101071.16;5032432;28;20033;-66
2022/09/20 00:50:51;;;;;;;1.65;0.80;;;;;;;12.38;95.37;101071.81;5032275;28;20045;-66
2022/09/20 00:53:25;;;;;;;4.55;0.98;;;;;;;12.33;94.76;101072.06;5029800;28;20041;-67
2022/09/20 00:55:56;;;;;;;3.35;1.20;;;;;;;12.37;95.34;101074.84;5031985;28;20564;-66
2022/09/20 00:58:24;;;;;;;3.10;1.10;;;;;;;12.41;94.72;101071.09;5032528;28;20025;-66
2022/09/20 01:01:11;;;;;;;3.10;0.80;;;;;;;12.39;94.36;101072.56;5030780;28;20041;-67
2022/09/20 01:03:41;;;;;;;2.45;0.57;;;;;;;12.33;94.80;101069.38;4962467;28;20482;-66
2022/09/20 01:06:10;;;;;;;0.65;0.45;;;;;;;12.28;95.17;101072.38;4966280;28;20043;-67
2022/09/20 01:08:37;;;;;;;1.10;0.60;;;;;;;12.22;94.70;101078.41;4983691;28;20057;-66
2022/09/20 01:11:03;;;;;;;2.47;0.80;;;;;;;12.14;94.90;101068.59;4974892;28;20054;-67
2022/09/20 01:13:28;;;;;;;4.45;0.80;;;;;;;12.08;94.91;101068.09;4943175;28;20046;-66
2022/09/20 01:15:57;;;;;;;1.55;0.82;;;;;;;12.12;95.02;101063.56;4968597;28;20112;-66
2022/09/20 01:18:24;;;;;;;1.30;0.63;;;;;;;12.11;94.88;101072.00;4970088;28;20063;-66
2022/09/20 01:20:50;;;;;;;1.02;0.82;;;;;;;12.05;94.35;101070.72;4970549;28;20431;-66
2022/09/20 01:23:24;;;;;;;1.95;1.00;;;;;;;11.92;94.60;101066.59;4969601;28;20586;-66
2022/09/20 01:26:17;;;;;;;1.00;0.82;;;;;;;11.87;94.33;101073.03;4969960;28;20097;-66
2022/09/20 01:28:46;;;;;;;4.05;0.73;;;;;;;11.81;94.48;101063.66;4970517;28;20539;-66
2022/09/20 01:31:25;;;;;;;1.10;0.65;;;;;;;11.69;95.12;101075.34;4968703;28;20142;-67
2022/09/20 01:34:06;;;;;;;1.35;0.80;;;;;;;11.62;95.50;101072.47;4965759;28;20054;-67
2022/09/20 01:36:36;;;;;;;;;;;;;;;11.61;94.88;101070.13;4970416;28;20042;-67
2022/09/20 01:39:20;;;;;;;2.05;0.80;;;;;;;11.63;95.06;101074.00;4970270;28;19928;-67
2022/09/20 01:41:58;;;;;;;1.48;0.80;;;;;;;11.71;95.05;101077.72;5020131;28;20056;-66
2022/09/20 01:44:26;;;;;;;0.65;0.52;;;;;;;11.70;95.23;101071.53;5039193;28;20034;-67
2022/09/20 01:47:23;;;;;;;0.70;0.50;;;;;;;11.77;94.82;101073.59;5027863;28;20394;-67
2022/09/20 01:49:51;;;;;;;1.42;0.93;;;;;;;11.75;94.92;101073.16;5019647;28;20033;-67
2022/09/20 01:52:19;;;;;;;2.92;1.30;;;;;;;11.76;94.92;101078.22;5029768;28;20496;-67
2022/09/20 01:55:23;;;;;;;0.93;0.60;;;;;;;11.74;94.54;101083.19;5029952;28;20117;-67
2022/09/20 01:58:27;;;;;;;4.75;0.82;;;;;;;11.67;94.50;101082.25;5029435;28;20112;-66
2022/09/20 02:01:11;;;;;;;1.65;0.73;;;;;;;11.62;94.80;101085.94;5002647;28;20459;-67
2022/09/20 02:04:21;;;;;;;0.60;0.60;;;;;;;11.72;94.76;101090.06;5030209;28;20026;-67
2022/09/20 02:06:56;;;;;;;1.13;0.60;;;;;;;11.65;94.02;101093.38;5022891;28;20406;-66
2022/09/20 02:09:52;;;;;;;0.77;0.73;;;;;;;11.70;94.82;101090.41;5032995;28;20047;-67
2022/09/20 02:12:21;;;;;;;0.75;0.73;;;;;;;11.68;93.91;101086.50;5035448;28;20052;-67
2022/09/20 02:15:01;;;;;;;1.23;1.10;;;;;;;11.64;94.11;101093.69;5029369;28;20033;-68
2022/09/20 02:17:42;;;;;;;2.38;0.77;;;;;;;11.68;94.33;101089.97;5010520;28;20029;-68
2022/09/20 02:20:29;;;;;;;0.88;0.77;;;;;;;11.84;93.63;101084.56;5038013;28;20032;-67
2022/09/20 02:22:57;;;;;;;1.52;1.05;;;;;;;11.85;94.14;101086.09;5022398;28;20037;-68
2022/09/20 02:25:53;;;;;;;2.35;0.98;;;;;;;11.88;93.59;101090.03;5023826;28;20069;-66
2022/09/20 02:28:36;;;;;;;10.15;1.02;;;;;;;11.90;93.83;101082.34;5051664;28;20451;-66
2022/09/20 02:31:20;;;;;;;1.23;0.90;;;;;;;11.96;94.18;101094.44;5036576;28;20053;-67
2022/09/20 02:34:14;;;;;;;1.05;0.77;;;;;;;11.88;94.74;101092.72;5029958;28;20041;-67
2022/09/20 02:36:51;;;;;;;2.17;0.90;;;;;;;11.85;95.44;101096.91;5030289;28;20041;-67
2022/09/20 02:39:44;;;;;;;3.70;1.20;;;;;;;11.87;95.17;101097.31;5031068;28;20039;-67
2022/09/20 02:42:09;;;;;;;3.40;0.88;;;;;;;11.86;95.21;101098.47;5038734;28;20041;-66
2022/09/20 02:44:58;;;;;;;2.22;1.17;;;;;;;11.83;95.16;101109.97;5038919;28;20029;-67
2022/09/20 02:47:35;;;;;;;2.60;1.08;;;;;;;11.90;94.83;101103.94;5028247;28;20390;-67
2022/09/20 02:50:11;;;;;;;1.98;1.10;;;;;;;11.86;95.86;101109.28;5017675;28;20037;-67
2022/09/20 02:53:01;;;;;;;4.50;1.50;;;;;;;11.90;95.17;101104.75;5007670;28;20042;-67
2022/09/20 02:55:48;;;;;;;0.63;0.63;;;;;;;11.86;95.49;101109.28;5029096;28;20125;-68
2022/09/20 02:58:36;;;;;;;2.97;1.00;;;;;;;11.80;96.23;101110.66;5027036;28;20114;-66
2022/09/20 03:01:23;;;;;;;1.13;0.63;;;;;;;11.81;96.71;101116.84;5031970;28;20021;-68
2022/09/20 03:04:10;;;;;;;2.50;1.33;;;;;;;11.80;96.91;101118.75;5027706;28;20092;-67
2022/09/20 03:06:36;;;;;;;1.15;0.90;;;;;;;11.78;96.24;101115.63;5027607;28;20547;-66
2022/09/20 03:09:10;;;;;;;0.98;0.75;;;;;;;11.76;96.61;101113.28;5027229;28;20033;-67
2022/09/20 03:11:47;;;;;;;3.70;1.17;;;;;;;11.77;96.64;101119.44;5029102;28;20503;-67
2022/09/20 03:14:21;;;;;;;1.23;0.70;;;;;;;11.77;96.81;101120.25;5023483;28;20030;-67
2022/09/20 03:17:14;;;;;;;3.63;1.08;;;;;;;11.79;96.90;101119.88;5029820;28;20094;-67
2022/09/20 03:19:59;;;;;;;1.23;0.82;;;;;;;11.87;97.39;101124.31;5028602;28;20045;-67
2022/09/20 03:22:27;;;;;;;2.25;0.93;;;;;;;11.97;96.51;101129.19;5026740;28;20522;-67
2022/09/20 03:25:23;;;;;;;2.65;1.00;;;;;;;11.94;96.66;101132.59;5028451;28;20033;-67
2022/09/20 03:28:02;;;;;;;0.98;0.65;;;;;;;11.90;97.22;101134.44;5027472;28;20033;-67
2022/09/20 03:30:45;;;;;;;1.20;0.77;;;;;;;11.87;97.21;101143.22;5027999;28;20490;-67
2022/09/20 03:33:46;;;;;;;3.63;1.23;;;;;;;11.87;96.90;101142.41;5033606;28;20052;-66
2022/09/20 03:36:23;;;;;;;1.40;1.30;;;;;;;11.80;97.32;101148.44;5028175;28;20107;-66
2022/09/20 03:38:55;;;;;;;1.98;1.00;;;;;;;11.78;97.90;101148.81;5030321;28;20112;-66
2022/09/20 03:41:49;;;;;;;2.55;1.25;;;;;;;11.81;97.39;101149.25;5023476;28;20069;-66
2022/09/20 03:44:26;;;;;;;1.27;0.70;;;;;;;11.77;97.89;101141.81;5054525;23;20057;-68
2022/09/20 03:47:08;;;;;;;4.28;1.50;;;;;;;11.73;97.08;101148.25;5051176;28;20118;-68
2022/09/20 03:49:50;;;;;;;1.73;1.10;;;;;;;11.71;97.20;101151.31;5053348;28;20093;-71
2022/09/20 03:52:18;;;;;;;;;;;;;;;11.69;97.37;101152.81;5032311;28;20481;-71
2022/09/20 03:55:03;;;;;;;1.88;0.85;;;;;;;11.65;97.70;101144.63;5052199;28;19935;-71
2022/09/20 03:57:46;;;;;;;2.25;1.17;;;;;;;11.60;97.43;101160.25;5052108;28;20074;-71
2022/09/20 04:00:23;;;;;;;1.50;1.08;;;;;;;11.55;97.51;101164.03;5037383;28;20095;-71
2022/09/20 04:02:55;;;;;;;3.83;1.25;;;;;;;11.51;98.07;101154.28;5026598;28;20037;-71
2022/09/20 04:05:29;;;;;;;3.15;1.65;;;;;;;11.45;97.89;101158.34;5046666;28;20091;-71
2022/09/20 04:08:38;;;;;;;1.90;1.15;;;;;;;11.30;96.91;101153.75;5054234;28;20045;-71
2022/09/20 04:11:14;;;;;;;2.55;1.50;;;;;;;11.18;97.70;101159.19;5046598;28;20048;-71
2022/09/20 04:14:10;;;;;;;2.03;1.42;;;;;;;11.17;97.54;101155.72;5048212;28;20056;-71
2022/09/20 04:16:45;;;;;;;1.08;0.95;;;;;;;11.09;97.45;101172.06;5042713;28;20028;-71
2022/09/20 04:19:37;;;;;;;1.55;1.23;;;;;;;11.05;97.77;101171.19;5051696;28;20048;-71
2022/09/20 04:22:05;;;;;;;2.83;1.02;;;;;;;11.07;97.48;101168.94;5033822;28;20030;-71
2022/09/20 04:24:50;;;;;;;1.77;1.27;;;;;;;10.98;97.66;101170.97;5035003;28;20040;-68
2022/09/20 04:27:45;;;;;;;3.13;1.35;;;;;;;11.04;97.09;101166.91;5039203;28;20389;-71
2022/09/20 04:30:17;;;;;;;3.15;1.00;;;;;;;10.98;97.42;101176.34;5023366;28;20033;-70
2022/09/20 04:33:20;;;;;;;2.10;1.15;;;;;;;10.99;96.78;101167.16;5039826;28;20082;-71
2022/09/20 04:36:28;;;;;;;1.75;1.02;;;;;;;10.93;97.41;101174.72;5033208;28;20052;-70
2022/09/20 04:39:17;;;;;;;1.48;1.02;;;;;;;10.85;97.18;101173.75;5053407;28;20067;-68
2022/09/20 04:42:06;;;;;;;0.73;0.73;;;;;;;10.82;97.52;101179.00;5026193;28;20061;-68
2022/09/20 04:45:07;;;;;;;1.23;0.90;;;;;;;10.76;97.59;101175.78;5021449;28;20036;-70
2022/09/20 04:47:48;;;;;;;1.27;1.17;;;;;;;10.74;97.64;101183.41;5030797;28;20102;-69
2022/09/20 04:50:21;;;;;;;1.25;0.88;;;;;;;10.77;97.24;101177.38;5057285;28;20122;-71
2022/09/20 04:53:18;;;;;;;1.90;0.90;;;;;;;10.71;97.06;101188.72;5032702;28;20072;-69
2022/09/20 04:55:44;;;;;;;4.88;1.40;;;;;;;10.66;96.81;101187.06;5051399;28;20112;-69
2022/09/20 04:58:15;;;;;;;6.53;1.80;;;;;;;10.70;96.99;101185.22;5033517;28;20576;-69
2022/09/20 05:00:56;;;;;;;;;;;;;;;10.68;96.64;101189.41;5028830;28;20125;-69
2022/09/20 05:03:34;;;;;;;1.20;0.85;;;;;;;10.73;97.28;101192.63;5027123;28;20642;-69
2022/09/20 05:06:08;;;;;;;1.63;1.20;;;;;;;10.67;96.72;101194.00;5039850;28;20040;-69
2022/09/20 05:09:04;;;;;;;1.92;0.80;;;;;;;10.58;96.94;101190.66;5050773;28;20041;-69
2022/09/20 05:11:48;;;;;;;1.67;1.00;;;;;;;10.57;96.97;101191.78;5028493;28;20040;-69
2022/09/20 05:14:33;;;;;;;7.68;1.38;;;;;;;10.61;97.29;101197.28;5050567;28;20038;-69
2022/09/20 05:17:14;;;;;;;4.20;1.33;;;;;;;10.67;96.77;101203.97;5047689;28;20517;-69
2022/09/20 05:20:02;;;;;;;1.38;1.25;;;;;;;10.70;97.31;101208.72;5051553;28;20047;-69
2022/09/20 05:22:33;;;;;;;4.00;1.15;;;;;;;10.62;97.10;101202.34;5046357;28;20044;-69
2022/09/20 05:25:05;;;;;;;5.05;1.70;;;;;;;10.63;96.71;101203.09;5056907;28;20031;-69
2022/09/20 05:28:00;;;;;;;1.15;0.82;;;;;;;10.74;96.23;101210.34;5049074;28;20036;-69
2022/09/20 05:30:39;;;;;;;1.83;1.20;;;;;;;10.71;96.33;101215.66;5023805;28;20036;-69
2022/09/20 05:33:24;;;;;;;3.88;1.58;;;;;;;10.70;96.77;101214.84;5026386;28;20040;-69
2022/09/20 05:36:07;;;;;;;19.35;3.67;;;;;;;10.64;96.61;101223.53;5041652;28;20033;-69
2022/09/20 05:38:49;;;;;;;11.40;3.17;;;;;;;10.67;96.93;101220.16;5044744;28;20525;-70
2022/09/20 05:41:16;;;;;;;2.95;1.38;;;;;;;10.66;96.67;101223.97;5049121;28;20060;-69
2022/09/20 05:43:51;;;;;;;5.05;1.40;;;;;;;10.69;96.58;101218.69;5043603;28;20048;-69
2022/09/20 05:46:29;;;;;;;2.45;1.23;;;;;;;10.75;97.18;101230.00;5010434;28;20159;-69
2022/09/20 05:49:09;;;;;;;4.00;1.48;;;;;;;10.81;96.87;101229.44;5015163;28;20049;-70
2022/09/20 05:51:42;;;;;;;1.25;0.88;;;;;;;10.86;97.56;101221.09;5043869;28;20065;-70
2022/09/20 05:54:53;;;;;;;2.47;1.08;;;;;;;10.94;97.37;101229.41;5046094;28;20041;-69
2022/09/20 05:57:43;;;;;;;1.23;0.93;;;;;;;11.06;97.58;101232.03;5004569;28;20076;-70
2022/09/20 06:00:12;;;;;;;32.13;4.20;;;;;;;11.09;97.19;101239.44;5053882;28;20174;-69
2022/09/20 06:02:52;;;;;;;2.60;1.80;;;;;;;11.15;97.55;101238.84;5042766;28;20393;-70
2022/09/20 06:05:39;;;;;;;4.57;1.83;;;;;;;11.21;97.18;101245.56;5045232;28;20044;-69
2022/09/20 06:08:17;;;;;;;2.58;1.17;;;;;;;11.22;97.52;101252.53;5021747;28;20045;-69
2022/09/20 06:11:08;;;;;;;1.75;1.13;;;;;;;11.26;97.55;101263.41;5042025;28;20485;-69
2022/09/20 06:13:37;;;;;;;2.85;1.58;;;;;;;11.31;97.26;101261.25;5029434;28;20699;-69
2022/09/20 06:16:05;;;;;;;3.05;1.50;;;;;;;11.32;97.51;101248.56;5047561;28;20086;-70
2022/09/20 06:18:46;;;;;;;4.90;1.77;;;;;;;11.34;97.30;101254.38;5022467;28;20029;-70
2022/09/20 06:21:32;;;;;;;2.58;1.83;;;;;;;11.35;97.92;101256.72;5016806;28;20091;-70
2022/09/20 06:24:00;;;;;;;4.40;1.83;;;;;;;11.40;98.28;101255.72;5048124;28;20393;-70
2022/09/20 06:26:32;;;;;;;4.32;1.55;;;;;;;11.45;97.81;101267.03;5048757;28;20037;-70
2022/09/20 06:29:02;;;;;;;2.38;1.67;;;;;;;11.54;97.58;101262.25;5045395;28;20025;-71
2022/09/20 06:31:28;;;;;;;4.55;1.55;;;;;;;11.59;97.61;101258.53;5033487;28;20032;-71
2022/09/20 06:33:59;;;;;;;3.70;2.15;;;;;;;11.59;97.35;101259.28;5042064;28;20037;-67
2022/09/20 06:42:00;;;;;;;5.57;1.35;;;;;;;11.58;99.36;101275.81;5050290;28;20403;-69
2022/09/20 06:44:27;;;;;;;24.23;4.40;;;;;;;11.69;98.69;101272.28;5044466;28;20422;-69
2022/09/20 06:46:53;;;;;;;15.50;1.63;;;;;;;11.83;98.71;101282.66;5057392;28;20044;-71
2022/09/20 06:49:23;;;;;;;7.25;1.50;;;;;;;11.90;99.00;101276.66;5036567;28;20025;-69
2022/09/20 06:51:51;;;;;;;4.00;1.77;;;;;;;12.00;98.91;101282.31;5032404;28;20540;-71
2022/09/20 06:54:19;;;;;;;2.47;1.30;;;;;;;12.14;99.08;101285.38;5024829;28;20445;-71
2022/09/20 06:56:46;;;;;;;1.70;1.35;;;;;;;12.20;98.40;101289.38;5032260;28;20040;-71
2022/09/20 06:59:14;;;;;;;2.70;1.83;;;;;;;12.27;98.83;101288.78;5048101;28;20090;-69
2022/09/20 07:01:40;;;;;;;3.38;1.30;;;;;;;12.35;98.45;101293.22;5052578;28;20043;-69
2022/09/20 07:04:06;;;;;;;4.28;2.03;;;;;;;12.39;98.81;101285.94;5061484;28;20079;-69
2022/09/20 07:06:32;;;;;;;2.72;1.52;;;;;;;12.41;98.95;101287.19;5032580;28;20041;-70
2022/09/20 07:08:57;;;;;;;3.10;1.30;;;;;;;12.52;99.18;101293.59;5033691;28;20028;-69
2022/09/20 07:11:24;;;;;;;1.55;1.05;;;;;;;12.61;98.30;101293.41;5056947;28;20550;-69
2022/09/20 07:13:54;;;;;;;2.38;1.48;;;;;;;12.69;98.60;101301.34;5031770;28;20044;-69
2022/09/20 07:16:20;;;;;;;0.80;0.70;;;;;;;12.81;98.39;101296.94;5049493;28;20041;-69
2022/09/20 07:18:47;;;;;;;3.05;1.02;;;;;;;12.85;98.71;101306.72;5059267;28;20025;-69
2022/09/20 07:21:15;;;;;;;2.72;0.73;;;;;;;13.03;98.87;101299.75;5037995;28;20025;-69
2022/09/20 07:23:41;;;;;;;2.85;0.98;;;;;;;13.30;98.31;101303.41;5042698;28;20927;-70
2022/09/20 07:26:18;;;;;;;1.85;0.90;;;;;;;13.54;98.49;101311.22;5039725;28;20038;-70
2022/09/20 07:28:44;;;;;;;1.77;1.15;;;;;;;13.77;98.61;101313.94;5054009;28;20040;-70
2022/09/20 07:31:09;;;;;;;2.38;1.15;;;;;;;13.95;98.05;101321.25;5051397;28;20028;-69
2022/09/20 07:33:35;;;;;;;1.23;0.88;;;;;;;14.16;97.68;101316.19;5052973;28;20508;-69
2022/09/20 07:36:01;;;;;;;1.35;0.95;;;;;;;14.36;97.57;101325.06;5051737;28;20090;-70
2022/09/20 07:38:27;;;;;;;2.90;1.13;;;;;;;14.55;97.10;101322.25;5053698;28;20013;-69
2022/09/20 07:41:01;;;;;;;2.13;0.93;;;;;;;14.77;96.95;101334.22;5046363;28;20046;-70
2022/09/20 07:43:27;;;;;;;2.00;1.10;;;;;;;15.08;96.62;101328.41;5046891;28;20036;-69
2022/09/20 07:45:54;;;;;;;8.48;0.60;;;;;;;15.26;95.46;101341.06;5049578;28;20427;-69
2022/09/20 07:48:24;;;;;;;5.50;1.02;;;;;;;15.45;95.04;101334.72;5051490;28;20048;-71
2022/09/20 07:50:52;;;;;;;6.28;1.27;;;;;;;15.60;93.79;101339.16;5046835;28;20041;-70
2022/09/20 07:53:18;;;;;;;3.95;1.20;;;;;;;15.75;93.31;101337.38;5051141;28;20511;-69
2022/09/20 07:56:15;;;;;;;0.98;0.60;;;;;;;15.96;91.55;101351.16;5053040;28;20047;-70
2022/09/20 07:58:41;;;;;;;0.50;0.35;;;;;;;16.21;90.94;101346.75;5044312;28;20040;-71
2022/09/20 08:01:11;;;;;;;2.70;0.80;;;;;;;16.32;89.12;101358.47;5049456;28;20029;-69
2022/09/20 08:03:36;;;;;;;0.70;0.50;;;;;;;16.45;88.54;101356.25;5065486;28;20125;-70
2022/09/20 08:06:08;;;;;;;5.68;0.77;;;;;;;16.58;88.11;101354.84;5053405;28;20060;-71
2022/09/20 08:08:36;;;;;;;3.72;0.73;;;;;;;16.76;87.76;101355.75;5052188;28;20051;-69
2022/09/20 08:11:04;;;;;;;0.55;0.30;;;;;;;16.87;86.48;101362.81;5051608;28;20040;-70
2022/09/20 08:13:30;;;;;;;1.38;0.20;;;;;;;17.04;85.79;101364.06;5054844;28;20083;-70
2022/09/20 08:16:04;;;;;;;3.15;0.80;;;;;;;17.23;85.21;101363.75;5047408;28;20436;-69
2022/09/20 08:18:30;;;;;;;0.45;0.30;;;;;;;17.33;84.11;101364.97;5033801;28;20032;-69
2022/09/20 08:20:56;;;;;;;2.20;0.40;;;;;;;17.47;84.25;101374.00;5017497;28;20400;-70
2022/09/20 08:23:22;;;;;;;1.75;0.57;;;;;;;17.65;83.68;101374.84;5048620;28;20036;-70
2022/09/20 08:25:48;;;;;;;5.57;0.70;;;;;;;17.80;82.53;101365.56;5056521;28;20093;-70
2022/09/20 08:28:14;;;;;;;1.77;0.28;;;;;;;18.01;81.35;101381.97;5055903;28;20037;-71
2022/09/20 08:30:39;;;;;;;1.95;0.40;;;;;;;18.09;80.40;101380.03;5051830;28;20047;-71
2022/09/20 08:33:05;;;;;;;2.70;0.47;;;;;;;18.18;79.05;101371.44;5049023;28;20044;-71
2022/09/20 08:35:34;;;;;;;2.40;0.50;;;;;;;18.23;79.24;101373.81;5059352;28;20561;-70
2022/09/20 08:38:00;;;;;;;1.58;0.38;;;;;;;18.24;78.41;101378.09;5054840;28;20083;-71
2022/09/20 08:40:29;;;;;;;2.03;0.45;;;;;;;18.34;78.73;101383.56;5029972;28;20486;-70
2022/09/20 08:42:56;;;;;;;0.70;0.20;;;;;;;18.54;77.70;101378.53;5057298;28;20059;-71
2022/09/20 08:45:25;;;;;;;1.00;0.30;;;;;;;18.53;77.84;101379.69;5041597;28;20370;-70
2022/09/20 08:48:01;;;;;;;0.70;0.10;;;;;;;18.73;75.71;101380.84;5052420;28;20112;-71
2022/09/20 08:50:27;;;;;;;4.43;0.40;;;;;;;18.73;76.21;101391.75;5048030;28;20037;-71
2022/09/20 08:52:56;;;;;;;0.88;0.35;;;;;;;18.98;74.97;101389.78;5052171;28;20061;-71
2022/09/20 08:55:26;;;;;;;7.82;1.83;;;;;;;19.02;75.02;101389.75;5033228;28;20107;-71
2022/09/20 08:57:55;;;;;;;1.07;0.30;;;;;;;19.02;74.19;101393.28;5040328;28;20029;-70
2022/09/20 09:00:25;;;;;;;3.17;0.50;;;;;;;19.08;74.50;101399.91;5050842;28;20428;-72
2022/09/20 09:02:57;;;;;;;2.88;0.20;;;;;;;19.15;72.56;101391.69;5051441;28;20044;-71
2022/09/20 09:05:33;;;;;;;0.43;0.38;;;;;;;19.47;71.84;101389.63;5054332;28;20067;-71
2022/09/20 09:08:05;;;;;;;1.40;0.40;;;;;;;19.46;72.53;101400.97;5052186;28;20037;-72
2022/09/20 09:10:35;;;;;;;1.63;0.60;;;;;;;19.58;70.34;101400.53;5051832;28;20033;-71
2022/09/20 09:13:02;;;;;;;0.50;0.27;;;;;;;19.66;70.04;101399.31;5048164;28;20033;-71
2022/09/20 09:15:32;;;;;;;0.77;0.20;;;;;;;19.64;67.41;101399.72;5047528;28;20089;-71
2022/09/20 09:17:58;;;;;;;2.42;0.10;;;;;;;19.87;68.17;101396.47;5056325;28;20033;-72
2022/09/20 09:20:24;;;;;;;0.22;0.15;;;;;;;19.83;66.43;101403.13;5051509;28;20037;-71
2022/09/20 09:23:03;;;;;;;1.73;0.22;;;;;;;19.91;66.08;101401.91;5013850;28;20535;-71
2022/09/20 09:25:33;;;;;;;1.98;0.20;;;;;;;19.90;65.29;101403.13;5050544;28;20036;-72
2022/09/20 09:28:07;;;;;;;0.98;0.10;;;;;;;20.12;64.19;101402.56;5048426;28;20052;-71
2022/09/20 09:30:37;;;;;;;0.75;0.20;;;;;;;20.45;65.24;101403.91;5046584;28;20036;-71
2022/09/20 09:33:27;;;;;;;0.80;0.25;;;;;;;20.72;61.57;101398.59;5039486;28;20029;-71
2022/09/20 09:36:02;;;;;;;0.30;0.20;;;;;;;20.92;60.40;101405.06;5053784;28;20405;-71
2022/09/20 09:38:39;;;;;;;1.27;0.17;;;;;;;20.94;59.77;101402.69;5030542;28;20120;-72
2022/09/20 09:41:25;;;;;;;0.40;0.30;;;;;;;20.95;60.18;101413.25;5055135;28;20098;-70
2022/09/20 09:44:24;;;;;;;2.67;0.13;;;;;;;21.00;58.85;101404.56;5028982;23;20103;-67
2022/09/20 09:46:52;;;;;;;2.47;0.30;;;;;;;20.96;57.56;101406.59;5003198;28;20045;-67
2022/09/20 09:49:22;;;;;;;4.15;0.30;;;;;;;20.92;58.14;101410.53;5031144;28;20099;-69
2022/09/20 09:52:14;;;;;;;2.28;0.30;;;;;;;20.76;57.07;101408.34;5028032;28;20083;-67
2022/09/20 09:54:47;;;;;;;3.22;0.30;;;;;;;20.59;59.76;101410.06;5016821;28;20064;-67
2022/09/20 09:57:32;;;;;;;1.27;0.30;;;;;;;20.57;58.36;101412.44;5040997;28;20031;-67
2022/09/20 10:00:13;;;;;;;1.20;0.10;;;;;;;20.62;59.73;101416.69;4992559;28;20041;-67
2022/09/20 10:03:21;;;;;;;0.52;0.17;;;;;;;20.65;58.90;101407.69;5030119;28;20032;-66
2022/09/20 10:06:11;;;;;;;0.30;0.10;;;;;;;20.74;59.31;101405.25;5019232;28;20405;-67
2022/09/20 10:08:55;;;;;;;1.35;0.28;;;;;;;20.65;55.90;101408.44;5028807;28;20029;-67
2022/09/20 10:11:39;;;;;;;0.17;0.10;;;;;;;20.43;57.89;101412.53;5034355;28;20562;-66
2022/09/20 10:14:16;;;;;;;0.73;0.20;;;;;;;20.33;58.96;101412.59;5029010;28;20482;-67
2022/09/20 10:16:57;;;;;;;0.82;0.20;;;;;;;20.17;58.13;101415.06;5027486;28;20030;-67
2022/09/20 10:19:41;;;;;;;2.38;0.40;;;;;;;20.11;59.92;101411.94;5024820;28;20034;-67
2022/09/20 10:22:10;;;;;;;1.38;0.20;;;;;;;20.24;58.14;101412.28;5025357;28;20091;-66
2022/09/20 10:24:38;;;;;;;1.08;0.22;;;;;;;20.34;59.14;101414.19;5029868;28;20045;-66
2022/09/20 10:27:32;;;;;;;1.80;0.20;;;;;;;20.34;57.73;101419.66;5030602;28;20041;-67
2022/09/20 10:30:00;;;;;;;0.55;0.25;;;;;;;20.49;58.31;101410.94;5029448;28;20585;-66
2022/09/20 10:32:40;;;;;;;0.85;0.30;;;;;;;20.57;56.12;101411.66;4994948;28;20047;-67
2022/09/20 10:35:13;;;;;;;0.25;0.10;;;;;;;20.56;55.32;101412.81;5021875;28;20037;-66
2022/09/20 10:37:53;;;;;;;0.55;0.20;;;;;;;20.64;56.14;101412.38;5030642;28;20046;-66
2022/09/20 10:43:13;;;;;;;0.57;0.10;;;;;;;20.59;56.10;101409.28;5029144;28;20488;-66
2022/09/20 10:43:26;;;;;;;0.10;0.10;;;;;;;20.69;55.80;101402.94;5030566;28;20048;-67
2022/09/20 10:46:01;;;;;;;0.20;0.10;;;;;;;20.84;56.41;101398.88;5019484;28;20086;-67
2022/09/20 10:48:37;;;;;;;1.48;0.10;;;;;;;20.94;54.77;101406.22;5016809;28;20482;-67
2022/09/20 10:51:47;;;;;;;0.25;0.10;;;;;;;20.97;53.70;101399.94;5030675;28;20033;-67
2022/09/20 10:54:31;;;;;;;0.75;0.35;;;;;;;21.07;54.50;101407.28;5007353;28;20057;-66
2022/09/20 10:57:18;;;;;;;0.68;0.10;;;;;;;21.11;54.68;101408.03;5033672;28;20056;-66
2022/09/20 11:00:03;;;;;;;1.63;0.15;;;;;;;21.20;53.37;101408.31;5034543;28;20639;-67
2022/09/20 11:02:53;;;;;;;1.92;0.20;;;;;;;21.29;54.63;101410.56;5034706;28;20789;-66
2022/09/20 11:05:36;;;;;;;0.30;0.10;;;;;;;21.13;53.59;101415.84;5003800;28;20414;-67
2022/09/20 11:08:17;;;;;;;1.85;0.15;;;;;;;21.02;51.82;101417.91;5021539;28;20018;-67
2022/09/20 11:10:49;;;;;;;1.73;0.30;;;;;;;20.98;51.52;101419.88;5029953;28;20072;-66
2022/09/20 11:13:29;;;;;;;0.28;0.10;;;;;;;21.09;52.44;101417.84;5034129;28;20038;-66
2022/09/20 11:16:06;;;;;;;4.22;0.20;;;;;;;21.13;51.14;101421.31;5034187;28;20486;-67
2022/09/20 11:18:54;;;;;;;2.53;0.30;;;;;;;21.22;51.94;101416.13;5019754;28;20513;-67
2022/09/20 11:21:27;;;;;;;0.17;0.10;;;;;;;21.18;51.33;101407.16;5034501;28;20033;-66
2022/09/20 11:24:14;;;;;;;0.47;0.22;;;;;;;21.19;52.09;101417.72;5016265;28;20073;-66
2022/09/20 11:26:53;;;;;;;0.15;0.15;;;;;;;21.32;52.25;101417.97;5032675;28;20060;-66
2022/09/20 11:29:27;;;;;;;0.50;0.30;;;;;;;21.34;52.06;101419.13;5033754;28;20037;-67
2022/09/20 11:32:00;;;;;;;1.52;0.40;;;;;;;21.33;52.41;101420.28;5029418;28;20030;-67
2022/09/20 11:34:30;;;;;;;0.50;0.20;;;;;;;21.32;51.62;101417.97;5032056;28;20033;-67
2022/09/20 11:37:00;;;;;;;1.30;0.10;;;;;;;21.31;51.30;101417.19;5015564;28;20529;-66
2022/09/20 11:39:47;;;;;;;1.02;0.20;;;;;;;21.39;49.66;101423.34;5033754;28;20040;-66
2022/09/20 11:42:19;;;;;;;3.83;0.75;;;;;;;21.44;49.51;101422.94;5024264;28;20448;-66
2022/09/20 11:44:45;;;;;;;1.65;0.20;;;;;;;21.53;49.30;101424.00;5045312;28;20044;-66
2022/09/20 11:47:18;;;;;;;0.10;0.10;;;;;;;21.53;48.54;101417.72;5032887;28;20041;-66
2022/09/20 11:50:03;;;;;;;0.95;0.32;;;;;;;21.61;48.38;101415.66;5033744;28;20041;-66
2022/09/20 11:52:34;;;;;;;0.35;0.20;;;;;;;21.69;49.06;101423.41;5028075;28;20033;-66
2022/09/20 11:55:05;;;;;;;0.45;0.15;;;;;;;21.85;49.07;101420.88;5032426;28;20117;-67
2022/09/20 11:57:31;;;;;;;0.10;0.00;;;;;;;22.06;48.60;101431.56;5032853;28;20029;-66
2022/09/20 12:00:04;;;;;;;1.17;0.40;;;;;;;22.15;48.32;101422.78;5026929;28;20041;-66
2022/09/20 12:02:52;;;;;;;0.80;0.10;;;;;;;22.24;48.59;101429.31;5037578;28;20111;-67
2022/09/20 12:05:38;;;;;;;1.23;0.20;;;;;;;22.31;48.01;101422.94;5032642;28;20037;-66
2022/09/20 12:08:20;;;;;;;1.15;0.20;;;;;;;22.17;47.50;101423.94;5032392;28;20159;-68
2022/09/20 12:11:00;;;;;;;0.20;0.03;;;;;;;22.00;47.04;101424.97;5039521;28;20155;-67
2022/09/20 12:13:26;;;;;;;0.40;0.40;;;;;;;22.02;47.81;101432.78;5040992;28;20410;-67
2022/09/20 12:16:02;;;;;;;0.75;0.30;;;;;;;21.99;47.34;101433.63;5015160;28;20642;-66